createdAt,value
2024-03-01T00:01:15.865Z,99848.75
2024-03-01T00:03:43.968Z,99847.25
2024-03-01T00:06:12.056Z,99844.72
2024-03-01T00:08:40.166Z,99845.44
2024-03-01T00:11:10.313Z,99846.03
2024-03-01T00:13:38.470Z,99843.81
2024-03-01T00:16:07.276Z,99842.28
2024-03-01T00:18:35.416Z,99844.41
2024-03-01T00:21:03.529Z,99843.31
2024-03-01T00:23:31.655Z,99839.81
2024-03-01T00:25:59.750Z,99841.09
2024-03-01T00:28:29.254Z,99836.09
2024-03-01T00:30:57.451Z,99836.66
2024-03-01T00:33:25.657Z,99836.66
2024-03-01T00:35:53.813Z,99832.34
2024-03-01T00:38:22.628Z,99829.69
2024-03-01T00:40:50.852Z,99833.31
2024-03-01T00:43:20.445Z,99827.03
2024-03-01T00:45:50.083Z,99833.22
2024-03-01T00:48:18.185Z,99838.91
2024-03-01T00:50:46.296Z,99828.84
2024-03-01T00:53:14.416Z,99827.03
2024-03-01T00:55:42.617Z,99819.25
2024-03-01T00:58:10.837Z,99823.06
2024-03-01T01:00:38.965Z,99820.28
2024-03-01T01:03:08.474Z,99808.84
2024-03-01T01:05:36.592Z,99819.06
2024-03-01T01:08:05.232Z,99810.41
2024-03-01T01:10:33.621Z,99822.84
2024-03-01T01:13:01.831Z,99815.16
2024-03-01T01:15:30.070Z,99803.31
2024-03-01T01:17:58.208Z,99797.31
2024-03-01T01:20:27.831Z,99810.56
2024-03-01T01:22:56.034Z,99788.94
2024-03-01T01:25:24.359Z,99785.63
2024-03-01T01:27:53.175Z,99784.91
2024-03-01T01:30:21.418Z,99784.91
2024-03-01T01:32:49.636Z,99777.25
2024-03-01T01:35:18.046Z,99782.16
2024-03-01T01:37:47.608Z,99782.44
2024-03-01T01:40:16.066Z,99780.78
2024-03-01T01:42:44.287Z,99788.03
2024-03-01T01:45:13.230Z,99782.75
2024-03-01T01:47:41.512Z,99777.16
2024-03-01T01:50:11.304Z,99771.16
2024-03-01T01:52:40.237Z,99773.78
2024-03-01T01:55:12.050Z,99759.03
2024-03-01T01:57:42.647Z,99752.22
2024-03-01T02:00:12.896Z,99749.84
2024-03-01T02:02:41.883Z,99752.78
2024-03-01T02:05:10.558Z,99750.16
2024-03-01T02:07:39.588Z,99741.19
2024-03-01T02:10:17.904Z,99749.31
2024-03-01T02:12:57.954Z,99751.13
2024-03-01T02:15:26.953Z,99738.72
2024-03-01T02:17:55.208Z,99734.25
2024-03-01T02:20:26.894Z,99728.25
2024-03-01T02:23:01.928Z,99730.59
2024-03-01T02:25:31.552Z,99727.28
2024-03-01T02:27:59.853Z,99731.72
2024-03-01T02:30:27.951Z,99737.16
2024-03-01T02:32:56.227Z,99726.56
2024-03-01T02:35:24.316Z,99722.28
2024-03-01T02:37:52.469Z,99714.47
2024-03-01T02:40:20.880Z,99710.84
2024-03-01T02:42:50.548Z,99714.63
2024-03-01T02:45:18.859Z,99710.28
2024-03-01T02:47:47.205Z,99715.59
2024-03-01T02:50:15.468Z,99707.63
2024-03-01T02:52:43.621Z,99710.28
2024-03-01T02:55:12.168Z,99706.66
2024-03-01T02:57:40.273Z,99706.66
2024-03-01T03:00:12.968Z,99704.69
2024-03-01T03:02:41.226Z,99697.72
2024-03-01T03:05:10.849Z,99705.53
2024-03-01T03:07:39.955Z,99708.31
2024-03-01T03:10:09.175Z,99703.03
2024-03-01T03:12:37.515Z,99701.38
2024-03-01T03:15:09.390Z,99695.25
2024-03-01T03:17:39.430Z,99698.00
2024-03-01T03:20:11.943Z,99699.16
2024-03-01T03:22:41.236Z,99695.66
2024-03-01T03:25:10.615Z,99694.97
2024-03-01T03:27:38.864Z,99688.00
2024-03-01T03:30:10.836Z,99687.16
2024-03-01T03:32:40.375Z,99689.13
2024-03-01T03:35:09.880Z,99693.88
2024-03-01T03:37:37.979Z,99702.78
2024-03-01T03:40:15.477Z,99695.81
2024-03-01T03:42:44.557Z,99696.09
2024-03-01T03:45:13.232Z,99701.41
2024-03-01T03:47:42.763Z,99689.97
2024-03-01T03:50:11.617Z,99688.31
2024-03-01T03:52:39.881Z,99693.75
2024-03-01T03:55:08.909Z,99691.09
2024-03-01T03:57:37.662Z,99690.25
2024-03-01T04:00:10.853Z,99701.69
2024-03-01T04:02:39.568Z,99696.41
2024-03-01T04:05:09.723Z,99697.53
2024-03-01T04:07:38.185Z,99687.91
2024-03-01T04:10:07.804Z,99696.69
2024-03-01T04:12:37.554Z,99685.25
2024-03-01T04:15:07.019Z,99681.09
2024-03-01T04:17:36.229Z,99691.69
2024-03-01T04:20:07.308Z,99681.09
2024-03-01T04:22:36.926Z,99684.69
2024-03-01T04:25:06.578Z,99681.38
2024-03-01T04:27:35.101Z,99684.16
2024-03-01T04:30:03.175Z,99673.72
2024-03-01T04:32:31.344Z,99683.59
2024-03-01T04:34:59.492Z,99688.22
2024-03-01T04:37:27.611Z,99684.72
2024-03-01T04:39:57.166Z,99680.56
2024-03-01T04:42:25.311Z,99678.88
2024-03-01T04:44:53.440Z,99677.19
2024-03-01T04:47:21.551Z,99670.94
2024-03-01T04:49:49.653Z,99680.56
2024-03-01T04:52:17.803Z,99677.19
2024-03-01T04:54:45.883Z,99680.56
2024-03-01T04:57:15.366Z,99685.84
2024-03-01T04:59:43.679Z,99676.91
2024-03-01T05:02:11.908Z,99677.91
2024-03-01T05:04:42.484Z,99676.91
2024-03-01T05:07:12.802Z,99674.44
2024-03-01T05:09:44.060Z,99675.25
2024-03-01T05:12:15.245Z,99679.00
2024-03-01T05:14:44.877Z,99675.56
2024-03-01T05:17:14.715Z,99681.81
2024-03-01T05:19:42.981Z,99682.78
2024-03-01T05:22:13.680Z,99675.81
2024-03-01T05:24:42.272Z,99681.53
2024-03-01T05:27:16.444Z,99674.56
2024-03-01T05:29:46.064Z,99669.56
2024-03-01T05:32:14.290Z,99673.06
2024-03-01T05:34:42.544Z,99674.97
2024-03-01T05:37:10.768Z,99674.00
2024-03-01T05:39:40.110Z,99675.81
2024-03-01T05:42:08.381Z,99677.78
2024-03-01T05:44:36.468Z,99685.84
2024-03-01T05:47:06.457Z,99689.34
2024-03-01T05:49:34.630Z,99691.13
2024-03-01T05:52:04.515Z,99693.78
2024-03-01T05:54:32.749Z,99692.25
2024-03-01T05:57:00.849Z,99700.06
2024-03-01T05:59:29.076Z,99698.41
2024-03-01T06:01:57.297Z,99696.44
2024-03-01T06:04:26.910Z,99699.78
2024-03-01T06:06:55.110Z,99700.47
2024-03-01T06:09:23.219Z,99703.13
2024-03-01T06:11:51.298Z,99707.28
2024-03-01T06:14:19.965Z,99715.09
2024-03-01T06:16:48.853Z,99718.59
2024-03-01T06:19:18.332Z,99718.44
2024-03-01T06:21:47.995Z,99717.47
2024-03-01T06:24:16.148Z,99721.50
2024-03-01T06:26:44.234Z,99728.59
2024-03-01T06:29:12.404Z,99731.13
2024-03-01T06:31:40.635Z,99732.09
2024-03-01T06:34:08.810Z,99721.50
2024-03-01T06:36:36.979Z,99727.47
2024-03-01T06:39:07.441Z,99717.88
2024-03-01T06:41:35.510Z,99724.84
2024-03-01T06:44:03.780Z,99730.13
2024-03-01T06:46:32.045Z,99744.19
2024-03-01T06:49:01.748Z,99743.34
2024-03-01T06:51:30.461Z,99737.94
2024-03-01T06:53:58.581Z,99733.47
2024-03-01T06:56:28.047Z,99730.84
2024-03-01T06:58:56.131Z,99732.34
2024-03-01T07:01:24.330Z,99734.16
2024-03-01T07:03:52.496Z,99729.59
2024-03-01T07:06:20.838Z,99728.47
2024-03-01T07:08:49.563Z,99723.72
2024-03-01T07:11:18.009Z,99730.41
2024-03-01T07:13:49.927Z,99732.06
2024-03-01T07:16:18.143Z,99729.13
2024-03-01T07:18:46.252Z,99727.03
2024-03-01T07:21:14.349Z,99725.09
2024-03-01T07:23:42.423Z,99726.50
2024-03-01T07:26:10.556Z,99727.16
2024-03-01T07:28:38.882Z,99715.31
2024-03-01T07:31:08.652Z,99714.06
2024-03-01T07:33:36.754Z,99708.59
2024-03-01T07:36:05.492Z,99710.00
2024-03-01T07:38:33.591Z,99707.91
2024-03-01T07:41:01.722Z,99708.44
2024-03-01T07:43:30.170Z,99716.09
2024-03-01T07:45:58.480Z,99725.56
2024-03-01T07:48:28.672Z,99719.97
2024-03-01T07:50:57.279Z,99725.00
2024-03-01T07:53:25.488Z,99722.75
2024-03-01T07:55:53.918Z,99726.63
2024-03-01T07:58:22.408Z,99727.72
2024-03-01T08:00:50.700Z,99724.81
2024-03-01T08:03:19.187Z,99731.31
2024-03-01T08:05:48.750Z,99730.59
2024-03-01T08:08:41.363Z,99726.38
2024-03-01T08:11:10.940Z,99735.97
2024-03-01T08:13:39.565Z,99730.25
2024-03-01T08:16:14.763Z,99728.97
2024-03-01T08:18:45.095Z,99729.22
2024-03-01T08:21:18.786Z,99732.25
2024-03-01T08:23:47.457Z,99730.84
2024-03-01T08:26:25.268Z,99729.81
2024-03-01T08:28:53.674Z,99725.56
2024-03-01T08:31:28.245Z,99717.53
2024-03-01T08:34:08.687Z,99714.69
2024-03-01T08:36:39.370Z,99723.44
2024-03-01T08:39:17.390Z,99721.72
2024-03-01T08:41:47.267Z,99721.41
2024-03-01T08:44:55.043Z,99718.00
2024-03-01T08:47:29.679Z,99714.72
2024-03-01T08:50:43.173Z,99723.00
2024-03-01T08:53:59.009Z,99720.63
2024-03-01T08:56:36.751Z,99728.88
2024-03-01T08:59:37.268Z,99732.31
2024-03-01T09:02:10.973Z,99727.91
2024-03-01T09:04:40.013Z,99728.91
2024-03-01T09:07:19.256Z,99720.88
2024-03-01T09:09:49.369Z,99716.84
2024-03-01T09:12:27.302Z,99727.47
2024-03-01T09:15:01.968Z,99721.72
2024-03-01T09:17:32.804Z,99725.34
2024-03-01T09:20:01.125Z,99722.06
2024-03-01T09:22:28.453Z,99727.53
2024-03-01T09:24:58.271Z,99731.00
2024-03-01T09:27:32.382Z,99725.56
2024-03-01T09:30:06.548Z,99731.59
2024-03-01T09:32:35.523Z,99725.69
2024-03-01T09:35:07.565Z,99727.00
2024-03-01T09:37:35.903Z,99727.72
2024-03-01T09:41:17.165Z,99725.72
2024-03-01T09:43:55.001Z,99729.03
2024-03-01T09:46:39.479Z,99731.66
2024-03-01T09:49:26.371Z,99739.84
2024-03-01T09:52:06.070Z,99734.97
2024-03-01T09:54:46.596Z,99746.28
2024-03-01T09:57:25.970Z,99740.47
2024-03-01T10:00:09.747Z,99732.75
2024-03-01T10:02:48.736Z,99745.25
2024-03-01T10:05:38.366Z,99745.88
2024-03-01T10:08:24.249Z,99735.34
2024-03-01T10:11:17.028Z,99743.97
2024-03-01T10:14:06.398Z,99741.09
2024-03-01T10:16:52.025Z,99746.25
2024-03-01T10:19:50.999Z,99744.69
2024-03-01T10:22:34.474Z,99754.63
2024-03-01T10:25:32.373Z,99748.91
2024-03-01T10:28:20.835Z,99744.97
2024-03-01T10:31:00.767Z,99737.72
2024-03-01T10:33:51.942Z,99734.69
2024-03-01T10:36:35.501Z,99745.34
2024-03-01T10:39:12.002Z,99737.50
2024-03-01T10:42:07.169Z,99746.63
2024-03-01T10:44:45.304Z,99745.94
2024-03-01T10:47:23.004Z,99745.56
2024-03-01T10:50:15.857Z,99742.63
2024-03-01T10:52:51.534Z,99744.69
2024-03-01T10:55:25.127Z,99746.13
2024-03-01T10:58:04.037Z,99745.22
2024-03-01T11:00:40.413Z,99747.16
2024-03-01T11:03:19.372Z,99744.69
2024-03-01T11:06:09.863Z,99750.81
2024-03-01T11:08:51.799Z,99744.06
2024-03-01T11:11:29.570Z,99751.72
2024-03-01T11:14:02.704Z,99747.56
2024-03-01T11:16:36.537Z,99741.38
2024-03-01T11:19:13.972Z,99737.16
2024-03-01T11:21:49.143Z,99733.25
2024-03-01T11:24:23.890Z,99737.47
2024-03-01T11:26:59.586Z,99735.47
2024-03-01T11:29:38.416Z,99738.59
2024-03-01T11:32:20.407Z,99751.41
2024-03-01T11:35:08.628Z,99749.75
2024-03-01T11:37:51.880Z,99747.44
2024-03-01T11:40:39.676Z,99752.06
2024-03-01T11:43:32.787Z,99755.44
2024-03-01T11:46:22.822Z,99751.94
2024-03-01T11:49:20.607Z,99751.00
2024-03-01T11:52:09.859Z,99756.34
2024-03-01T11:54:58.704Z,99758.03
2024-03-01T11:57:39.325Z,99756.81
2024-03-01T12:00:40.682Z,99758.47
2024-03-01T12:03:56.866Z,99769.41
2024-03-01T12:06:48.881Z,99770.31
2024-03-01T12:09:32.824Z,99776.06
2024-03-01T12:12:16.421Z,99768.50
2024-03-01T12:14:57.164Z,99770.03
2024-03-01T12:17:33.675Z,99773.50
2024-03-01T12:20:07.256Z,99772.13
2024-03-01T12:22:51.710Z,99771.19
2024-03-01T12:25:26.311Z,99772.41
2024-03-01T12:28:29.863Z,99765.84
2024-03-01T12:31:13.231Z,99764.56
2024-03-01T12:34:12.265Z,99759.19
2024-03-01T12:36:54.951Z,99773.66
2024-03-01T12:39:29.610Z,99774.69
2024-03-01T12:42:11.922Z,99775.06
2024-03-01T12:45:06.338Z,99783.09
2024-03-01T12:47:57.305Z,99775.09
2024-03-01T12:50:42.904Z,99776.56
2024-03-01T12:53:52.566Z,99781.72
2024-03-01T12:56:34.178Z,99780.38
2024-03-01T12:59:36.855Z,99776.78
2024-03-01T13:02:35.796Z,99776.78
2024-03-01T13:05:19.417Z,99779.72
2024-03-01T13:07:51.764Z,99781.88
2024-03-01T13:10:24.030Z,99776.59
2024-03-01T13:12:59.257Z,99781.03
2024-03-01T13:15:40.246Z,99770.53
2024-03-01T13:18:13.990Z,99780.09
2024-03-01T13:21:05.706Z,99778.19
2024-03-01T13:23:53.936Z,99778.44
2024-03-01T13:26:41.063Z,99768.25
2024-03-01T13:29:16.471Z,99769.03
2024-03-01T13:32:00.662Z,99756.22
2024-03-01T13:34:32.788Z,99755.03
2024-03-01T13:37:11.726Z,99757.53
2024-03-01T13:39:47.450Z,99767.94
2024-03-01T13:42:29.046Z,99754.75
2024-03-01T13:45:07.075Z,99755.47
2024-03-01T13:47:40.013Z,99753.91
2024-03-01T13:50:10.364Z,99749.81
2024-03-01T13:52:41.540Z,99755.78
2024-03-01T13:55:16.769Z,99761.91
2024-03-01T13:57:46.337Z,99754.03
2024-03-01T14:00:25.021Z,99754.22
2024-03-01T14:02:56.575Z,99758.63
2024-03-01T14:05:29.553Z,99756.69
2024-03-01T14:07:59.944Z,99755.63
2024-03-01T14:10:29.050Z,99752.38
2024-03-01T14:12:57.907Z,99755.94
2024-03-01T14:15:26.242Z,99756.03
2024-03-01T14:17:56.027Z,99768.88
2024-03-01T14:20:24.171Z,99753.97
2024-03-01T14:22:54.796Z,99758.94
2024-03-01T14:25:25.502Z,99764.28
2024-03-01T14:27:56.626Z,99768.47
2024-03-01T14:30:27.371Z,99769.63
2024-03-01T14:33:11.532Z,99756.72
2024-03-01T14:35:41.676Z,99756.31
2024-03-01T14:38:14.937Z,99756.09
2024-03-01T14:40:43.271Z,99750.50
2024-03-01T14:43:11.881Z,99748.38
2024-03-01T14:45:41.098Z,99745.47
2024-03-01T14:48:13.106Z,99749.72
2024-03-01T14:50:46.105Z,99749.91
2024-03-01T14:53:35.255Z,99751.94
2024-03-01T14:56:08.144Z,99749.47
2024-03-01T14:58:37.481Z,99753.97
2024-03-01T15:01:06.441Z,99749.81
2024-03-01T15:03:37.296Z,99747.34
2024-03-01T15:06:08.552Z,99749.38
2024-03-01T15:08:37.217Z,99748.16
2024-03-01T15:11:08.774Z,99750.56
2024-03-01T15:13:37.721Z,99742.31
2024-03-01T15:16:07.641Z,99743.91
2024-03-01T15:18:43.197Z,99745.13
2024-03-01T15:21:13.559Z,99727.75
2024-03-01T15:23:42.617Z,99733.13
2024-03-01T15:26:12.026Z,99736.38
2024-03-01T15:28:41.436Z,99733.09
2024-03-01T15:31:11.763Z,99735.16
2024-03-01T15:33:40.263Z,99742.94
2024-03-01T15:36:10.121Z,99745.56
2024-03-01T15:38:38.605Z,99740.41
2024-03-01T15:41:06.927Z,99743.41
2024-03-01T15:43:36.527Z,99731.22
2024-03-01T15:46:06.459Z,99751.88
2024-03-01T15:48:35.105Z,99755.34
2024-03-01T15:51:03.466Z,99754.25
2024-03-01T15:53:33.195Z,99760.44
2024-03-01T15:56:02.915Z,99761.03
2024-03-01T15:58:31.542Z,99744.66
2024-03-01T16:01:00.426Z,99741.69
2024-03-01T16:03:28.818Z,99751.59
2024-03-01T16:05:57.110Z,99752.88
2024-03-01T16:08:26.652Z,99755.69
2024-03-01T16:10:59.095Z,99758.97
2024-03-01T16:13:33.671Z,99752.38
2024-03-01T16:16:05.841Z,99760.59
2024-03-01T16:18:38.507Z,99762.16
2024-03-01T16:21:08.697Z,99766.88
2024-03-01T16:23:40.708Z,99767.88
2024-03-01T16:26:14.452Z,99768.25
2024-03-01T16:28:43.885Z,99772.38
2024-03-01T16:31:12.517Z,99774.41
2024-03-01T16:33:41.182Z,99771.47
2024-03-01T16:36:19.390Z,99782.19
2024-03-01T16:38:49.041Z,99786.06
2024-03-01T16:41:36.702Z,99787.66
2024-03-01T16:44:06.490Z,99791.53
2024-03-01T16:46:40.723Z,99795.41
2024-03-01T16:49:35.028Z,99790.44
2024-03-01T16:52:04.668Z,99793.88
2024-03-01T16:54:35.885Z,99792.56
2024-03-01T16:57:09.929Z,99793.16
2024-03-01T16:59:39.090Z,99796.00
2024-03-01T17:02:28.265Z,99794.53
2024-03-01T17:04:58.014Z,99800.66
2024-03-01T17:07:45.802Z,99805.19
2024-03-01T17:10:24.454Z,99802.22
2024-03-01T17:12:59.349Z,99796.59
2024-03-01T17:15:29.105Z,99798.34
2024-03-01T17:17:58.054Z,99799.38
2024-03-01T17:20:26.654Z,99800.75
2024-03-01T17:22:55.331Z,99791.25
2024-03-01T17:25:23.935Z,99793.25
2024-03-01T17:27:52.151Z,99792.00
2024-03-01T17:30:21.618Z,99801.84
2024-03-01T17:32:50.358Z,99798.88
2024-03-01T17:35:22.215Z,99781.19
2024-03-01T17:37:51.019Z,99789.56
2024-03-01T17:40:19.542Z,99781.25
2024-03-01T17:42:48.699Z,99784.94
2024-03-01T17:45:17.478Z,99783.84
2024-03-01T17:47:47.703Z,99785.06
2024-03-01T17:50:16.157Z,99779.88
2024-03-01T17:52:44.343Z,99775.72
2024-03-01T17:55:12.632Z,99787.44
2024-03-01T17:57:41.600Z,99785.28
2024-03-01T18:00:12.744Z,99786.50
2024-03-01T18:02:41.069Z,99799.88
2024-03-01T18:05:11.154Z,99797.19
2024-03-01T18:07:40.409Z,99788.44
2024-03-01T18:10:09.950Z,99786.59
2024-03-01T18:12:38.159Z,99794.63
2024-03-01T18:15:08.513Z,99798.31
2024-03-01T18:17:36.699Z,99791.28
2024-03-01T18:20:05.752Z,99793.94
2024-03-01T18:22:35.614Z,99786.28
2024-03-01T18:25:05.673Z,99788.97
2024-03-01T18:27:34.102Z,99792.00
2024-03-01T18:30:02.259Z,99789.34
2024-03-01T18:32:30.456Z,99794.03
2024-03-01T18:34:58.639Z,99789.72
2024-03-01T18:37:27.266Z,99793.09
2024-03-01T18:39:56.829Z,99790.59
2024-03-01T18:42:25.026Z,99792.59
2024-03-01T18:44:53.158Z,99797.13
2024-03-01T18:47:21.325Z,99797.47
2024-03-01T18:49:50.518Z,99787.78
2024-03-01T18:52:18.957Z,99794.50
2024-03-01T18:54:47.091Z,99788.31
2024-03-01T18:57:16.578Z,99784.16
2024-03-01T18:59:48.552Z,99782.84
2024-03-01T19:02:21.632Z,99785.53
2024-03-01T19:04:56.278Z,99780.72
2024-03-01T19:07:24.738Z,99786.91
2024-03-01T19:09:52.982Z,99775.56
2024-03-01T19:12:24.710Z,99774.88
2024-03-01T19:14:53.010Z,99778.13
2024-03-01T19:17:21.259Z,99776.81
2024-03-01T19:19:49.372Z,99786.38
2024-03-01T19:22:17.563Z,99781.38
2024-03-01T19:24:45.734Z,99784.03
2024-03-01T19:27:13.869Z,99780.09
2024-03-01T19:29:43.784Z,99780.44
2024-03-01T19:32:11.919Z,99772.75
2024-03-01T19:34:40.038Z,99778.09
2024-03-01T19:37:08.301Z,99772.94
2024-03-01T19:39:36.469Z,99764.47
2024-03-01T19:42:06.274Z,99763.16
2024-03-01T19:44:34.431Z,99757.81
2024-03-01T19:47:04.276Z,99757.16
2024-03-01T19:49:32.543Z,99756.47
2024-03-01T19:52:00.798Z,99744.97
2024-03-01T19:54:29.044Z,99748.47
2024-03-01T19:56:57.790Z,99750.50
2024-03-01T19:59:26.105Z,99751.84
2024-03-01T20:01:54.373Z,99753.69
2024-03-01T20:04:23.996Z,99753.88
2024-03-01T20:06:52.896Z,99753.06
2024-03-01T20:09:21.109Z,99758.19
2024-03-01T20:14:23.862Z,99762.91
2024-03-01T20:16:53.190Z,99759.38
2024-03-01T20:19:22.840Z,99764.94
2024-03-01T20:21:51.838Z,99765.25
2024-03-01T20:24:20.029Z,99769.78
2024-03-01T20:26:48.163Z,99772.63
2024-03-01T20:29:16.293Z,99783.31
2024-03-01T20:31:45.079Z,99773.81
2024-03-01T20:34:13.282Z,99778.47
2024-03-01T20:36:42.747Z,99791.00
2024-03-01T20:39:11.186Z,99785.84
2024-03-01T20:41:39.334Z,99780.50
2024-03-01T20:44:07.498Z,99774.31
2024-03-01T20:46:35.630Z,99775.31
2024-03-01T20:49:04.473Z,99772.84
2024-03-01T20:51:32.687Z,99768.34
2024-03-01T20:54:02.128Z,99777.34
2024-03-01T20:56:30.203Z,99771.38
2024-03-01T20:58:58.323Z,99775.19
2024-03-01T21:01:26.548Z,99778.53
2024-03-01T21:03:54.716Z,99767.53
2024-03-01T21:06:22.918Z,99771.03
2024-03-01T21:08:51.053Z,99763.03
2024-03-01T21:11:20.593Z,99757.06
2024-03-01T21:13:49.268Z,99761.72
2024-03-01T21:16:17.473Z,99756.56
2024-03-01T21:18:45.597Z,99759.03
2024-03-01T21:21:13.723Z,99759.41
2024-03-01T21:23:41.921Z,99756.72
2024-03-01T21:26:10.082Z,99750.91
2024-03-01T21:28:39.749Z,99758.06
2024-03-01T21:31:07.869Z,99749.41
2024-03-01T21:33:36.027Z,99755.59
2024-03-01T21:36:04.609Z,99754.09
2024-03-01T21:38:32.714Z,99755.13
2024-03-01T21:41:02.401Z,99757.94
2024-03-01T21:43:30.543Z,99757.09
2024-03-01T21:46:01.358Z,99751.13
2024-03-01T21:48:30.171Z,99752.13
2024-03-01T21:50:58.317Z,99742.44
2024-03-01T21:53:26.511Z,99744.31
2024-03-01T21:55:54.709Z,99745.47
2024-03-01T21:58:23.250Z,99745.66
2024-03-01T22:00:51.410Z,99733.50
2024-03-01T22:03:20.959Z,99735.47
2024-03-01T22:05:50.608Z,99737.50
2024-03-01T22:08:18.689Z,99736.47
2024-03-01T22:10:46.875Z,99738.50
2024-03-01T22:13:17.509Z,99732.31
2024-03-01T22:15:46.212Z,99727.19
2024-03-01T22:18:14.568Z,99730.19
2024-03-01T22:20:44.211Z,99731.19
2024-03-01T22:23:13.028Z,99723.19
2024-03-01T22:25:41.149Z,99724.38
2024-03-01T22:28:10.051Z,99726.38
2024-03-01T22:30:38.216Z,99720.88
2024-03-01T22:33:06.953Z,99725.38
2024-03-01T22:35:35.286Z,99727.84
2024-03-01T22:38:05.202Z,99719.84
2024-03-01T22:40:34.921Z,99719.19
2024-03-01T22:43:03.007Z,99714.69
2024-03-01T22:45:32.245Z,99709.53
2024-03-01T22:48:00.927Z,99717.38
2024-03-01T22:50:29.128Z,99715.53
2024-03-01T22:52:57.303Z,99716.53
2024-03-01T22:55:41.133Z,99718.38
2024-03-01T22:58:11.843Z,99714.22
2024-03-01T23:00:47.085Z,99712.53
2024-03-01T23:03:41.210Z,99706.56
2024-03-01T23:06:14.192Z,99712.25
2024-03-01T23:08:47.452Z,99698.91
2024-03-01T23:11:41.333Z,99697.22
2024-03-01T23:14:45.681Z,99688.56
2024-03-01T23:17:14.611Z,99687.75
2024-03-01T23:19:43.325Z,99692.25
2024-03-01T23:22:17.225Z,99685.91
2024-03-01T23:24:45.430Z,99690.56
2024-03-01T23:27:15.997Z,99683.41
2024-03-01T23:29:44.848Z,99680.91
2024-03-01T23:32:12.954Z,99679.91
2024-03-01T23:34:41.061Z,99683.56
2024-03-01T23:37:09.243Z,99687.25
2024-03-01T23:39:37.405Z,99690.75
2024-03-01T23:42:05.994Z,99679.41
2024-03-01T23:44:36.555Z,99683.91
2024-03-01T23:47:05.032Z,99685.09
2024-03-01T23:49:33.131Z,99679.91
2024-03-01T23:52:01.275Z,99672.25
2024-03-01T23:54:29.467Z,99680.28
2024-03-01T23:56:57.695Z,99677.94
2024-03-01T23:59:25.820Z,99684.31
